Terminal Aerodrome Forecast
Issued by NWS

Home | Current Version | Previous Version | Text Only | Print | Product List | Glossary On
Versions: 1 2 3 4 5 6 7 8 9 10 11 12
000
FTUS43 KMPX 012300
TAFRWF
TAF
KRWF 012339Z 0200/0224 33005KT P6SM SCT050 SCT080
     FM020100 VRB03KT P6SM FEW250
     FM021400 21005KT P6SM SCT060 BKN150=

USA.gov is the U.S. government's official web portal to all federal, state and local government web resources and services.